createdAt,value
2019-04-27T00:02:23.060Z,11.10
2019-04-27T00:05:09.369Z,11.10
2019-04-27T00:07:41.701Z,11.10
2019-04-27T00:10:28.483Z,11.10
2019-04-27T00:12:57.257Z,11.10
2019-04-27T00:15:36.806Z,11.10
2019-04-27T00:18:23.373Z,11.10
2019-04-27T00:21:06.144Z,11.00
2019-04-27T00:23:35.021Z,11.00
2019-04-27T00:26:04.542Z,11.00
2019-04-27T00:28:33.435Z,11.00
2019-04-27T00:31:03.295Z,10.90
2019-04-27T00:33:33.921Z,10.90
2019-04-27T00:36:08.837Z,10.90
2019-04-27T00:38:58.589Z,10.90
2019-04-27T00:41:27.608Z,10.90
2019-04-27T00:43:56.466Z,10.90
2019-04-27T00:46:25.326Z,10.90
2019-04-27T00:48:54.218Z,10.80
2019-04-27T00:51:23.204Z,10.80
2019-04-27T00:53:54.868Z,10.80
2019-04-27T00:56:53.972Z,10.80
2019-04-27T00:59:49.704Z,10.90
2019-04-27T01:02:46.646Z,10.80
2019-04-27T01:05:19.516Z,10.80
2019-04-27T01:07:48.424Z,10.70
2019-04-27T01:10:17.676Z,10.70
2019-04-27T01:12:46.513Z,10.70
2019-04-27T01:15:15.440Z,10.70
2019-04-27T01:17:44.415Z,10.70
2019-04-27T01:20:13.484Z,10.60
2019-04-27T01:22:42.356Z,10.70
2019-04-27T01:25:11.340Z,10.60
2019-04-27T01:27:59.552Z,10.60
2019-04-27T01:30:35.611Z,10.60
2019-04-27T01:33:04.512Z,10.50
2019-04-27T01:35:33.336Z,10.50
2019-04-27T01:38:02.146Z,10.50
2019-04-27T01:40:31.022Z,10.50
2019-04-27T01:42:59.956Z,10.40
2019-04-27T01:45:29.107Z,10.40
2019-04-27T01:47:59.571Z,10.30
2019-04-27T01:50:29.073Z,10.30
2019-04-27T01:52:58.735Z,10.30
2019-04-27T01:55:29.719Z,10.30
2019-04-27T01:57:58.809Z,10.20
2019-04-27T02:00:49.312Z,10.20
2019-04-27T02:03:21.284Z,10.10
2019-04-27T02:05:53.785Z,10.10
2019-04-27T02:08:22.744Z,10.10
2019-04-27T02:10:51.805Z,10.10
2019-04-27T02:13:20.981Z,10.20
2019-04-27T02:15:49.968Z,10.10
2019-04-27T02:18:19.398Z,10.20
2019-04-27T02:20:49.217Z,10.30
2019-04-27T02:23:19.273Z,10.30
2019-04-27T02:25:49.692Z,10.40
2019-04-27T02:28:41.200Z,10.40
2019-04-27T02:31:40.390Z,10.40
2019-04-27T02:34:14.770Z,10.40
2019-04-27T02:36:43.736Z,10.40
2019-04-27T02:39:12.729Z,10.40
2019-04-27T02:41:41.572Z,10.40
2019-04-27T02:44:21.614Z,10.40
2019-04-27T02:46:50.547Z,10.40
2019-04-27T02:49:20.141Z,10.50
2019-04-27T02:52:04.317Z,10.50
2019-04-27T02:54:33.146Z,10.50
2019-04-27T02:57:01.957Z,10.60
2019-04-27T02:59:31.004Z,10.60
2019-04-27T03:02:11.438Z,10.60
2019-04-27T03:04:40.306Z,10.70
2019-04-27T03:07:11.489Z,10.70
2019-04-27T03:09:39.936Z,10.70
2019-04-27T03:12:10.213Z,10.70
2019-04-27T03:14:50.594Z,10.70
2019-04-27T03:17:44.725Z,10.70
2019-04-27T03:20:32.857Z,10.70
2019-04-27T03:23:04.074Z,10.70
2019-04-27T03:25:44.446Z,10.80
2019-04-27T03:28:14.966Z,10.70
2019-04-27T03:30:44.094Z,10.70
2019-04-27T03:33:12.996Z,10.70
2019-04-27T03:35:43.684Z,10.70
2019-04-27T03:38:13.090Z,10.70
2019-04-27T03:40:42.087Z,10.70
2019-04-27T03:43:20.031Z,10.70
2019-04-27T03:45:52.181Z,10.70
2019-04-27T03:48:20.617Z,10.70
2019-04-27T03:50:59.718Z,10.70
2019-04-27T03:53:36.445Z,10.70
2019-04-27T03:56:24.844Z,10.70
2019-04-27T03:58:59.772Z,10.70
2019-04-27T04:01:30.211Z,10.70
2019-04-27T04:03:59.963Z,10.70
2019-04-27T04:06:29.753Z,10.70
2019-04-27T04:09:00.212Z,10.70
2019-04-27T04:11:36.614Z,10.70
2019-04-27T04:14:10.157Z,10.70
2019-04-27T04:16:49.706Z,10.70
2019-04-27T04:19:19.678Z,10.70
2019-04-27T04:21:50.403Z,10.70
2019-04-27T04:24:20.038Z,10.70
2019-04-27T04:26:50.333Z,10.70
2019-04-27T04:29:20.252Z,10.70
2019-04-27T04:31:50.388Z,10.70
2019-04-27T04:34:20.108Z,10.80
2019-04-27T04:36:50.430Z,10.80
2019-04-27T04:39:19.955Z,10.80
2019-04-27T04:41:54.793Z,10.80
2019-04-27T04:44:45.539Z,10.80
2019-04-27T04:47:20.177Z,10.80
2019-04-27T04:49:54.618Z,10.80
2019-04-27T04:52:19.827Z,10.80
2019-04-27T04:54:49.532Z,10.80
2019-04-27T04:57:19.475Z,10.80
2019-04-27T04:59:51.344Z,10.80
2019-04-27T05:02:21.035Z,10.80
2019-04-27T05:04:49.983Z,10.90
2019-04-27T05:07:19.455Z,10.80
2019-04-27T05:09:48.710Z,10.90
2019-04-27T05:12:19.039Z,10.90
2019-04-27T05:14:48.969Z,10.90
2019-04-27T05:17:19.645Z,10.90
2019-04-27T05:19:49.237Z,10.90
2019-04-27T05:22:19.550Z,10.90
2019-04-27T05:25:00.322Z,10.90
2019-04-27T05:27:30.622Z,10.80
2019-04-27T05:30:00.333Z,10.90
2019-04-27T05:32:29.426Z,10.90
2019-04-27T05:34:59.609Z,10.80
2019-04-27T05:37:31.590Z,10.80
2019-04-27T05:39:59.287Z,10.70
2019-04-27T05:42:28.691Z,10.70
2019-04-27T05:45:21.403Z,10.70
2019-04-27T05:47:56.388Z,10.80
2019-04-27T05:50:37.648Z,10.80
2019-04-27T05:52:56.626Z,10.80
2019-04-27T05:55:25.436Z,10.90
2019-04-27T05:57:54.218Z,10.90
2019-04-27T06:00:29.140Z,10.90
2019-04-27T06:02:59.035Z,10.90
2019-04-27T06:05:29.266Z,10.90
2019-04-27T06:07:58.891Z,10.80
2019-04-27T06:10:29.653Z,10.90
2019-04-27T06:12:59.821Z,10.90
2019-04-27T06:15:30.201Z,10.80
2019-04-27T06:17:59.743Z,10.90
2019-04-27T06:20:28.694Z,10.80
2019-04-27T06:22:58.884Z,10.80
2019-04-27T06:25:30.550Z,10.80
2019-04-27T06:27:59.238Z,10.70
2019-04-27T06:30:29.474Z,10.80
2019-04-27T06:32:59.440Z,10.80
2019-04-27T06:35:28.825Z,10.80
2019-04-27T06:37:58.584Z,10.80
2019-04-27T06:40:29.063Z,10.80
2019-04-27T06:42:59.545Z,10.80
2019-04-27T06:45:28.658Z,10.80
2019-04-27T06:47:59.432Z,10.80
2019-04-27T06:50:29.582Z,10.90
2019-04-27T06:52:59.086Z,10.80
2019-04-27T06:55:29.168Z,10.90
2019-04-27T06:57:58.847Z,10.90
2019-04-27T07:00:28.879Z,11.00
2019-04-27T07:02:59.556Z,11.00
2019-04-27T07:05:33.596Z,10.90
2019-04-27T07:08:02.393Z,10.90
2019-04-27T07:10:31.237Z,10.80
2019-04-27T07:13:00.050Z,10.80
2019-04-27T07:15:28.832Z,10.80
2019-04-27T07:17:58.609Z,10.80
2019-04-27T07:20:28.685Z,10.80
2019-04-27T07:22:59.517Z,10.90
2019-04-27T07:25:28.936Z,10.90
2019-04-27T07:27:59.152Z,10.90
2019-04-27T07:30:28.905Z,10.90
2019-04-27T07:32:58.724Z,10.90
2019-04-27T07:35:29.616Z,10.90
2019-04-27T07:37:58.963Z,11.00
2019-04-27T07:40:28.918Z,11.00
2019-04-27T07:43:05.456Z,10.90
2019-04-27T07:45:36.793Z,10.60
2019-04-27T07:48:05.617Z,10.40
2019-04-27T07:50:34.633Z,10.40
2019-04-27T07:53:03.425Z,10.30
2019-04-27T07:55:32.206Z,10.30
2019-04-27T07:58:01.001Z,10.40
2019-04-27T08:00:29.916Z,10.40
2019-04-27T08:02:58.761Z,10.30
2019-04-27T08:05:29.044Z,10.30
2019-04-27T08:07:59.991Z,10.30
2019-04-27T08:10:29.294Z,10.40
2019-04-27T08:12:59.747Z,10.50
2019-04-27T08:15:29.166Z,10.50
2019-04-27T08:17:59.166Z,10.70
2019-04-27T08:20:29.416Z,10.90
2019-04-27T08:22:59.874Z,11.20
2019-04-27T08:25:30.846Z,11.10
2019-04-27T08:28:10.396Z,11.10
2019-04-27T08:31:00.377Z,11.10
2019-04-27T08:33:29.499Z,11.20
2019-04-27T08:35:59.078Z,11.40
2019-04-27T08:38:28.893Z,11.40
2019-04-27T08:40:59.243Z,11.40
2019-04-27T08:43:29.023Z,11.40
2019-04-27T08:45:58.737Z,11.50
2019-04-27T08:48:34.727Z,11.60
2019-04-27T08:50:59.402Z,11.70
2019-04-27T08:53:29.861Z,11.80
2019-04-27T08:55:59.238Z,11.90
2019-04-27T08:58:28.651Z,11.80
2019-04-27T09:00:59.068Z,11.90
2019-04-27T09:03:29.397Z,12.00
2019-04-27T09:05:59.141Z,11.90
2019-04-27T09:08:41.276Z,12.20
2019-04-27T09:11:24.754Z,12.20
2019-04-27T09:14:05.325Z,12.90
2019-04-27T09:16:39.812Z,12.70
2019-04-27T09:19:23.274Z,12.60
2019-04-27T09:22:16.097Z,12.70
2019-04-27T09:24:39.627Z,12.90
2019-04-27T09:27:09.626Z,12.90
2019-04-27T09:29:39.507Z,12.90
2019-04-27T09:32:08.975Z,12.80
2019-04-27T09:34:38.447Z,13.20
2019-04-27T09:37:07.559Z,13.30
2019-04-27T09:39:36.452Z,13.10
2019-04-27T09:42:06.560Z,13.20
2019-04-27T09:44:37.090Z,13.20
2019-04-27T09:47:06.237Z,12.90
2019-04-27T09:49:36.678Z,13.00
2019-04-27T09:52:06.324Z,13.10
2019-04-27T09:54:36.546Z,13.20
2019-04-27T09:57:06.950Z,13.20
2019-04-27T09:59:39.327Z,13.10
2019-04-27T10:02:08.624Z,13.20
2019-04-27T10:04:37.602Z,13.20
2019-04-27T10:07:06.544Z,13.80
2019-04-27T10:09:36.822Z,13.60
2019-04-27T10:12:07.433Z,13.50
2019-04-27T10:14:36.578Z,13.50
2019-04-27T10:17:05.525Z,13.40
2019-04-27T10:19:34.360Z,13.20
2019-04-27T10:22:03.336Z,13.00
2019-04-27T10:24:32.260Z,13.30
2019-04-27T10:27:01.037Z,13.50
2019-04-27T10:29:29.845Z,13.40
2019-04-27T10:31:58.633Z,13.30
2019-04-27T10:34:27.569Z,13.20
2019-04-27T10:36:56.457Z,13.20
2019-04-27T10:39:27.729Z,13.20
2019-04-27T10:41:56.378Z,13.10
2019-04-27T10:44:26.679Z,13.20
2019-04-27T10:46:55.877Z,13.20
2019-04-27T10:49:24.649Z,13.30
2019-04-27T10:51:53.522Z,13.70
2019-04-27T10:54:22.389Z,13.80
2019-04-27T10:56:51.290Z,14.10
2019-04-27T10:59:20.769Z,14.50
2019-04-27T11:01:49.978Z,14.50
2019-04-27T11:04:37.937Z,14.30
2019-04-27T11:07:09.512Z,14.30
2019-04-27T11:09:38.403Z,14.70
2019-04-27T11:12:07.499Z,14.90
2019-04-27T11:14:36.548Z,15.60
2019-04-27T11:17:07.076Z,15.90
2019-04-27T11:19:36.045Z,15.70
2019-04-27T11:22:07.100Z,15.20
2019-04-27T11:24:35.673Z,15.10
2019-04-27T11:27:05.842Z,15.50
2019-04-27T11:29:36.053Z,15.50
2019-04-27T11:32:05.722Z,15.50
2019-04-27T11:34:59.825Z,15.00
2019-04-27T11:37:32.061Z,14.90
2019-04-27T11:40:01.109Z,14.60
2019-04-27T11:42:30.140Z,14.60
2019-04-27T11:53:30.994Z,12.80
2019-04-27T12:00:28.369Z,13.90
2019-04-27T12:07:59.603Z,13.70
2019-04-27T12:13:51.498Z,12.60
2019-04-27T12:16:20.421Z,11.80
2019-04-27T12:18:49.326Z,11.90
2019-04-27T12:21:18.233Z,12.80
2019-04-27T12:23:47.276Z,13.50
2019-04-27T12:26:33.845Z,13.30
2019-04-27T12:29:06.161Z,13.30
2019-04-27T12:31:42.864Z,13.40
2019-04-27T12:36:45.913Z,13.40
2019-04-27T12:39:15.618Z,13.70
2019-04-27T12:41:46.191Z,14.50
2019-04-27T12:46:30.622Z,14.80
2019-04-27T12:56:30.151Z,13.40
2019-04-27T12:59:13.767Z,12.40
2019-04-27T13:01:42.914Z,11.90
2019-04-27T13:04:11.812Z,11.90
2019-04-27T13:06:40.781Z,11.90
2019-04-27T13:09:09.708Z,12.50
2019-04-27T13:11:38.546Z,12.80
2019-04-27T13:14:07.498Z,13.30
2019-04-27T13:16:36.406Z,13.30
2019-04-27T13:19:06.140Z,13.30
2019-04-27T13:21:36.577Z,13.10
2019-04-27T13:24:07.009Z,12.80
2019-04-27T13:26:36.154Z,12.80
2019-04-27T13:29:06.836Z,13.10
2019-04-27T13:31:43.028Z,13.10
2019-04-27T13:34:11.817Z,13.20
2019-04-27T13:36:40.826Z,13.10
2019-04-27T13:39:09.743Z,13.10
2019-04-27T13:41:38.524Z,13.40
2019-04-27T13:44:07.381Z,13.30
2019-04-27T13:46:55.881Z,12.90
2019-04-27T13:49:46.154Z,12.80
2019-04-27T13:52:21.290Z,13.20
2019-04-27T13:54:50.084Z,13.10
2019-04-27T13:57:18.873Z,13.10
2019-04-27T13:59:47.771Z,13.10
2019-04-27T14:02:16.661Z,13.10
2019-04-27T14:04:45.636Z,13.00
2019-04-27T14:07:14.576Z,13.00
2019-04-27T14:09:43.786Z,12.60
2019-04-27T14:12:21.200Z,12.70
2019-04-27T14:14:51.523Z,12.50
2019-04-27T14:17:20.374Z,12.40
2019-04-27T14:19:49.336Z,12.50
2019-04-27T14:22:18.343Z,12.70
2019-04-27T14:24:48.730Z,12.70
2019-04-27T14:27:19.058Z,12.80
2019-04-27T14:29:48.944Z,13.10
2019-04-27T14:32:18.743Z,13.40
2019-04-27T14:34:50.074Z,13.60
2019-04-27T14:37:28.668Z,13.40
2019-04-27T15:07:11.274Z,12.80
2019-04-27T15:09:42.061Z,13.30
2019-04-27T15:12:10.872Z,13.30
2019-04-27T15:14:40.149Z,13.30
2019-04-27T15:17:12.406Z,13.20
2019-04-27T15:19:48.421Z,13.30
2019-04-27T15:22:23.094Z,13.30
2019-04-27T15:25:07.717Z,13.10
2019-04-27T15:27:30.858Z,13.00
2019-04-27T15:30:03.048Z,12.90
2019-04-27T15:32:40.651Z,12.80
2019-04-27T15:35:21.351Z,12.60
2019-04-27T15:37:53.008Z,12.50
2019-04-27T15:40:30.324Z,12.60
2019-04-27T15:43:05.440Z,12.70
2019-04-27T15:45:34.408Z,12.90
2019-04-27T15:48:03.293Z,13.00
2019-04-27T15:50:32.401Z,13.00
2019-04-27T15:53:02.860Z,12.70
2019-04-27T15:55:36.646Z,12.70
2019-04-27T15:58:02.767Z,12.80
2019-04-27T16:00:31.584Z,12.90
2019-04-27T16:03:00.465Z,12.90
2019-04-27T16:05:32.313Z,12.90
2019-04-27T16:08:06.148Z,12.80
2019-04-27T16:10:32.759Z,12.60
2019-04-27T16:13:06.695Z,12.50
2019-04-27T16:15:31.549Z,12.70
2019-04-27T16:18:00.353Z,12.70
2019-04-27T16:20:33.743Z,13.00
2019-04-27T16:23:03.375Z,13.10
2019-04-27T16:25:32.768Z,13.10
2019-04-27T16:28:04.580Z,12.90
2019-04-27T16:30:31.637Z,12.60
2019-04-27T16:33:00.604Z,12.70
2019-04-27T16:35:29.466Z,12.50
2019-04-27T16:38:09.600Z,12.50
2019-04-27T16:40:39.001Z,12.50
2019-04-27T16:43:09.048Z,12.50
2019-04-27T16:45:38.808Z,12.40
2019-04-27T16:48:09.159Z,12.40
2019-04-27T16:50:39.033Z,12.30
2019-04-27T16:53:12.156Z,12.40
2019-04-27T16:55:39.010Z,12.40
2019-04-27T16:58:10.567Z,12.20
2019-04-27T17:00:40.696Z,11.90
2019-04-27T17:03:09.871Z,11.60
2019-04-27T17:05:38.764Z,11.60
2019-04-27T17:08:14.372Z,11.40
2019-04-27T17:10:39.092Z,11.40
2019-04-27T17:13:12.963Z,11.50
2019-04-27T17:15:59.398Z,11.60
2019-04-27T17:18:52.836Z,11.60
2019-04-27T17:21:23.235Z,11.50
2019-04-27T17:23:51.666Z,11.40
2019-04-27T17:26:23.832Z,11.40
2019-04-27T17:28:56.357Z,11.50
2019-04-27T17:31:28.961Z,11.70
2019-04-27T17:34:00.694Z,11.70
2019-04-27T17:36:29.688Z,11.50
2019-04-27T17:38:58.506Z,11.50
2019-04-27T17:41:28.346Z,11.40
2019-04-27T17:43:58.939Z,11.30
2019-04-27T17:46:28.268Z,10.90
2019-04-27T17:48:59.981Z,10.70
2019-04-27T17:51:28.589Z,10.70
2019-04-27T17:53:58.678Z,10.50
2019-04-27T17:56:35.370Z,10.60
2019-04-27T17:58:58.625Z,10.70
2019-04-27T18:01:30.129Z,10.70
2019-04-27T18:04:02.687Z,10.60
2019-04-27T18:06:29.746Z,10.60
2019-04-27T18:09:02.040Z,10.60
2019-04-27T18:11:33.025Z,10.70
2019-04-27T18:14:00.435Z,10.70
2019-04-27T18:16:34.304Z,10.80
2019-04-27T18:19:11.512Z,10.70
2019-04-27T18:21:52.642Z,10.70
2019-04-27T18:24:25.043Z,10.70
2019-04-27T18:27:02.999Z,10.70
2019-04-27T18:29:30.935Z,10.70
2019-04-27T18:31:59.911Z,10.80
2019-04-27T18:34:28.770Z,10.70
2019-04-27T18:36:57.676Z,10.80
2019-04-27T18:39:29.728Z,10.80
2019-04-27T18:42:03.078Z,10.80
2019-04-27T18:44:38.677Z,10.70
2019-04-27T18:50:28.215Z,10.60
2019-04-27T18:53:01.516Z,10.60
2019-04-27T18:55:30.544Z,10.50
2019-04-27T18:58:01.977Z,10.60
2019-04-27T19:00:29.885Z,10.60
2019-04-27T19:02:58.712Z,10.50
2019-04-27T19:05:39.283Z,10.50
2019-04-27T19:07:58.701Z,10.40
2019-04-27T19:10:28.156Z,10.50
2019-04-27T19:12:58.479Z,10.40
2019-04-27T19:15:28.591Z,10.40
2019-04-27T19:17:58.202Z,10.50
2019-04-27T19:20:28.760Z,10.50
2019-04-27T19:22:59.761Z,10.50
2019-04-27T19:25:36.205Z,10.50
2019-04-27T19:28:42.268Z,10.40
2019-04-27T19:31:18.647Z,10.40
2019-04-27T19:33:48.156Z,10.40
2019-04-27T19:36:19.099Z,10.40
2019-04-27T19:38:49.671Z,10.40
2019-04-27T19:41:18.681Z,10.40
2019-04-27T19:43:48.807Z,10.40
2019-04-27T19:46:19.835Z,10.40
2019-04-27T19:48:49.949Z,10.30
2019-04-27T19:51:18.981Z,10.30
2019-04-27T19:53:47.820Z,10.30
2019-04-27T19:56:16.989Z,10.30
2019-04-27T19:58:50.676Z,10.30
2019-04-27T20:01:24.644Z,10.30
2019-04-27T20:04:01.045Z,10.40
2019-04-27T20:06:29.883Z,10.40
2019-04-27T20:09:00.572Z,10.30
2019-04-27T20:11:29.344Z,10.40
2019-04-27T20:14:00.817Z,10.30
2019-04-27T20:16:28.793Z,10.20
2019-04-27T20:18:57.675Z,10.20
2019-04-27T20:21:26.456Z,10.20
2019-04-27T20:23:55.257Z,10.20
2019-04-27T20:26:24.073Z,10.10
2019-04-27T20:28:52.909Z,10.10
2019-04-27T20:31:21.705Z,10.20
2019-04-27T20:33:50.512Z,10.10
2019-04-27T20:36:21.265Z,10.00
2019-04-27T20:38:50.929Z,10.00
2019-04-27T20:41:21.856Z,10.00
2019-04-27T20:43:51.193Z,10.00
2019-04-27T20:46:22.498Z,9.90
2019-04-27T20:48:51.280Z,9.80
2019-04-27T20:51:41.206Z,9.60
2019-04-27T20:54:11.627Z,9.60
2019-04-27T20:56:40.710Z,9.50
2019-04-27T20:59:10.889Z,9.40
2019-04-27T21:01:39.975Z,9.30
2019-04-27T21:04:08.805Z,9.30
2019-04-27T21:06:42.680Z,9.30
2019-04-27T21:09:15.349Z,9.30
2019-04-27T21:11:48.031Z,9.40
2019-04-27T21:14:17.493Z,9.50
2019-04-27T21:16:47.005Z,9.40
2019-04-27T21:19:15.793Z,9.40
2019-04-27T21:21:44.601Z,9.40
2019-04-27T21:24:13.388Z,9.50
2019-04-27T21:26:42.440Z,9.40
2019-04-27T21:29:11.753Z,9.40
2019-04-27T21:31:41.789Z,9.40
2019-04-27T21:34:10.789Z,9.40
2019-04-27T21:36:40.853Z,9.40
2019-04-27T21:39:11.571Z,9.40
2019-04-27T21:41:41.358Z,9.30
2019-04-27T21:44:11.586Z,9.20
2019-04-27T21:46:41.700Z,9.20
2019-04-27T21:49:11.202Z,9.20
2019-04-27T21:52:01.324Z,9.20
2019-04-27T21:54:33.143Z,9.30
2019-04-27T21:57:02.394Z,9.20
2019-04-27T21:59:31.201Z,9.20
2019-04-27T22:02:02.380Z,9.20
2019-04-27T22:04:31.546Z,9.20
2019-04-27T22:07:01.370Z,9.10
2019-04-27T22:09:30.434Z,9.10
2019-04-27T22:12:00.845Z,9.00
2019-04-27T22:14:29.932Z,9.00
2019-04-27T22:17:00.731Z,9.00
2019-04-27T22:19:31.105Z,9.00
2019-04-27T22:22:01.697Z,8.90
2019-04-27T22:24:38.712Z,8.90
2019-04-27T22:27:07.792Z,9.00
2019-04-27T22:29:36.896Z,8.90
2019-04-27T22:32:05.920Z,9.00
2019-04-27T22:34:34.686Z,9.10
2019-04-27T22:37:03.839Z,9.10
2019-04-27T22:39:48.405Z,9.10
2019-04-27T22:42:45.850Z,9.00
2019-04-27T22:45:19.177Z,9.10
2019-04-27T22:47:48.028Z,9.20
2019-04-27T22:50:16.817Z,9.00
2019-04-27T22:52:45.644Z,8.80
2019-04-27T22:55:14.588Z,8.80
2019-04-27T22:57:54.915Z,8.70
2019-04-27T23:00:43.918Z,8.70
2019-04-27T23:03:16.225Z,8.70
2019-04-27T23:05:45.128Z,8.80
2019-04-27T23:08:13.936Z,8.90
2019-04-27T23:10:42.848Z,8.80
2019-04-27T23:13:12.320Z,8.80
2019-04-27T23:15:44.565Z,8.80
2019-04-27T23:18:13.396Z,8.80
2019-04-27T23:20:42.560Z,8.90
2019-04-27T23:23:11.471Z,8.90
2019-04-27T23:25:42.425Z,8.90
2019-04-27T23:28:10.866Z,8.90
2019-04-27T23:30:56.585Z,8.90
2019-04-27T23:33:25.424Z,9.00
2019-04-27T23:35:54.225Z,8.90
2019-04-27T23:38:23.068Z,8.90
2019-04-27T23:40:51.924Z,8.90
2019-04-27T23:43:20.999Z,9.00
2019-04-27T23:45:51.638Z,8.90
2019-04-27T23:48:20.605Z,8.90
2019-04-27T23:50:51.443Z,8.80
2019-04-27T23:53:22.090Z,8.80
2019-04-27T23:55:50.921Z,8.70
2019-04-27T23:58:19.716Z,8.60
